Time;durP1;ratioP1;P1;durP2;ratioP2;P2;SDS_P1;SDS_P2;PMS_P1;PMS_P2;Temp;Humidity;BMP_temperature;BMP_pressure;BME280_temperature;BME280_humidity;BME280_pressure;Samples;Min_cycle;Max_cycle;Signal;HPM_P1;HPM_P2
2022/10/11 00:01:46;;;;;;;3.60;0.93;;;;;;;;;;4956945;28;20123;-78
2022/10/11 00:04:11;;;;;;;2.47;0.85;;;;;;;;;;4948702;28;20078;-79
2022/10/11 00:06:37;;;;;;;5.00;1.23;;;;;;;;;;4942058;28;20070;-79
2022/10/11 00:09:05;;;;;;;2.70;0.80;;;;;;;;;;4931654;28;20452;-78
2022/10/11 00:11:31;;;;;;;2.65;0.75;;;;;;;;;;4934227;28;20080;-80
2022/10/11 00:13:57;;;;;;;4.32;1.08;;;;;;;;;;4919341;28;20454;-79
2022/10/11 00:16:23;;;;;;;2.25;0.90;;;;;;;;;;4938046;28;20035;-78
2022/10/11 00:18:48;;;;;;;4.13;1.00;;;;;;;;;;4935300;28;20036;-79
2022/10/11 00:21:14;;;;;;;3.00;0.95;;;;;;;;;;4940272;28;20039;-79
2022/10/11 00:23:40;;;;;;;4.03;1.00;;;;;;;;;;4925169;28;20036;-80
2022/10/11 00:26:07;;;;;;;3.40;0.80;;;;;;;;;;4935877;28;20539;-79
2022/10/11 00:28:33;;;;;;;2.97;0.83;;;;;;;;;;4946408;28;20554;-79
2022/10/11 00:30:58;;;;;;;2.05;0.77;;;;;;;;;;4924925;28;20118;-79
2022/10/11 00:33:24;;;;;;;1.45;0.57;;;;;;;;;;4938808;28;20047;-79
2022/10/11 00:35:49;;;;;;;1.52;0.60;;;;;;;;;;4930775;28;20467;-79
2022/10/11 00:38:16;;;;;;;3.65;0.80;;;;;;;;;;4959775;28;20110;-79
2022/10/11 00:40:42;;;;;;;3.47;1.23;;;;;;;;;;4968528;28;20035;-79
2022/10/11 00:43:22;;;;;;;2.83;0.65;;;;;;;;;;4951906;28;20743;-79
2022/10/11 00:45:56;;;;;;;4.82;0.95;;;;;;;;;;4943109;28;20043;-79
2022/10/11 00:48:26;;;;;;;3.45;0.70;;;;;;;;;;4937656;28;20035;-79
2022/10/11 00:50:52;;;;;;;5.53;0.98;;;;;;;;;;4939580;28;20031;-79
2022/10/11 00:53:18;;;;;;;5.15;1.08;;;;;;;;;;4954336;28;20040;-79
2022/10/11 00:55:50;;;;;;;4.07;0.90;;;;;;;;;;4926918;28;20058;-79
2022/10/11 00:58:16;;;;;;;3.17;0.93;;;;;;;;;;4941777;28;20043;-79
2022/10/11 01:00:42;;;;;;;2.05;0.75;;;;;;;;;;4923421;28;20043;-79
2022/10/11 01:03:07;;;;;;;3.55;0.98;;;;;;;;;;4941783;28;20529;-79
2022/10/11 01:05:35;;;;;;;5.07;1.20;;;;;;;;;;4970191;28;20047;-79
2022/10/11 01:08:01;;;;;;;3.05;0.93;;;;;;;;;;4957114;28;20035;-80
2022/10/11 01:10:27;;;;;;;4.82;1.00;;;;;;;;;;4938103;28;20058;-79
2022/10/11 01:13:47;;;;;;;3.03;1.13;;;;;;;;;;4954659;28;20107;-79
2022/10/11 01:16:31;;;;;;;4.95;1.10;;;;;;;;;;4878434;28;20113;-79
2022/10/11 01:19:29;;;;;;;3.15;1.00;;;;;;;;;;4939557;28;20035;-79
2022/10/11 01:22:16;;;;;;;3.80;0.90;;;;;;;;;;4939724;28;20525;-79
2022/10/11 01:25:06;;;;;;;3.25;0.80;;;;;;;;;;4952088;28;20562;-78
2022/10/11 01:27:41;;;;;;;2.55;0.85;;;;;;;;;;4937565;28;20039;-79
2022/10/11 01:30:26;;;;;;;4.00;1.08;;;;;;;;;;4920079;28;20117;-79
2022/10/11 01:32:54;;;;;;;3.40;0.70;;;;;;;;;;4923569;28;20123;-79
2022/10/11 01:35:25;;;;;;;4.13;0.95;;;;;;;;;;4937269;28;20114;-79
2022/10/11 01:38:12;;;;;;;3.72;1.10;;;;;;;;;;4922408;28;20078;-79
2022/10/11 01:40:51;;;;;;;3.42;1.00;;;;;;;;;;4923981;28;20051;-79
2022/10/11 01:43:17;;;;;;;4.47;0.98;;;;;;;;;;4944696;28;20035;-79
2022/10/11 01:45:43;;;;;;;3.75;1.00;;;;;;;;;;4937843;28;20059;-79
2022/10/11 01:48:11;;;;;;;4.85;1.10;;;;;;;;;;4936841;28;20035;-79
2022/10/11 01:50:38;;;;;;;;;;;;;;;;;;4937820;28;20046;-78
2022/10/11 01:53:28;;;;;;;5.43;1.00;;;;;;;;;;4937961;28;19934;-79
2022/10/11 01:56:14;;;;;;;4.82;1.15;;;;;;;;;;4937242;28;20972;-79
2022/10/11 01:58:56;;;;;;;5.15;0.90;;;;;;;;;;4969535;28;20407;-78
2022/10/11 02:01:36;;;;;;;2.15;0.77;;;;;;;;;;4944135;28;20032;-79
2022/10/11 02:04:11;;;;;;;5.18;1.27;;;;;;;;;;4936431;28;20122;-79
2022/10/11 02:06:48;;;;;;;3.30;0.80;;;;;;;;;;4921516;28;20059;-79
2022/10/11 02:09:28;;;;;;;4.00;0.80;;;;;;;;;;4924821;28;20035;-79
2022/10/11 02:11:56;;;;;;;6.15;1.38;;;;;;;;;;4934435;28;20566;-80
2022/10/11 02:14:23;;;;;;;5.82;1.30;;;;;;;;;;4938917;28;20138;-78
2022/10/11 02:17:06;;;;;;;4.18;0.93;;;;;;;;;;4920777;28;20511;-79
2022/10/11 02:19:38;;;;;;;6.15;1.10;;;;;;;;;;4940079;28;20047;-79
2022/10/11 02:22:08;;;;;;;5.68;1.08;;;;;;;;;;4930312;28;20036;-79
2022/10/11 02:24:35;;;;;;;5.55;1.10;;;;;;;;;;4935395;28;20046;-79
2022/10/11 02:27:03;;;;;;;3.40;0.90;;;;;;;;;;4932121;28;20050;-79
2022/10/11 02:29:29;;;;;;;;;;;;;;;;;;4969932;28;20066;-80
2022/10/11 02:31:55;;;;;;;5.40;1.45;;;;;;;;;;4928239;28;19923;-80
2022/10/11 02:34:24;;;;;;;2.85;0.90;;;;;;;;;;4927563;28;20071;-80
2022/10/11 02:37:03;;;;;;;5.18;0.93;;;;;;;;;;4927424;28;20499;-80
2022/10/11 02:39:48;;;;;;;5.35;1.05;;;;;;;;;;4968333;28;20127;-80
2022/10/11 02:42:25;;;;;;;5.53;1.15;;;;;;;;;;4931704;28;20040;-80
2022/10/11 02:44:58;;;;;;;;;;;;;;;;;;4925334;28;20089;-80
2022/10/11 02:47:24;;;;;;;4.20;1.48;;;;;;;;;;4937029;28;19949;-80
2022/10/11 02:49:50;;;;;;;4.05;0.88;;;;;;;;;;4953529;28;20046;-80
2022/10/11 02:52:15;;;;;;;4.10;1.05;;;;;;;;;;4954428;28;20142;-80
2022/10/11 02:54:40;;;;;;;4.70;1.00;;;;;;;;;;4937466;28;20542;-80
2022/10/11 02:57:09;;;;;;;4.80;1.00;;;;;;;;;;4920771;28;20474;-79
2022/10/11 02:59:34;;;;;;;5.47;1.02;;;;;;;;;;4922675;28;20071;-80
2022/10/11 03:01:59;;;;;;;3.05;0.80;;;;;;;;;;4935998;28;20054;-80
2022/10/11 03:04:24;;;;;;;7.60;1.17;;;;;;;;;;4919853;28;20047;-80
2022/10/11 03:06:50;;;;;;;4.72;1.35;;;;;;;;;;4927767;28;20557;-79
2022/10/11 03:09:15;;;;;;;6.95;1.00;;;;;;;;;;4920327;28;20038;-79
2022/10/11 03:11:40;;;;;;;4.65;1.27;;;;;;;;;;4918752;28;20046;-79
2022/10/11 03:14:06;;;;;;;3.33;1.50;;;;;;;;;;4967970;28;20039;-81
2022/10/11 03:16:31;;;;;;;4.07;1.00;;;;;;;;;;4964573;28;20031;-80
2022/10/11 03:18:56;;;;;;;5.85;1.58;;;;;;;;;;4936185;28;20126;-81
2022/10/11 03:21:23;;;;;;;5.32;1.73;;;;;;;;;;4935051;28;20048;-80
2022/10/11 03:23:51;;;;;;;5.28;1.40;;;;;;;;;;4935663;28;20533;-80
2022/10/11 03:26:17;;;;;;;;;;;;;;;;;;4936122;28;20055;-80
2022/10/11 03:28:42;;;;;;;4.03;1.05;;;;;;;;;;4936410;28;19953;-80
2022/10/11 03:31:07;;;;;;;5.82;1.33;;;;;;;;;;4935807;28;20039;-80
2022/10/11 03:33:33;;;;;;;7.53;1.38;;;;;;;;;;4951776;28;20047;-82
2022/10/11 03:35:59;;;;;;;4.90;1.55;;;;;;;;;;4934850;28;20390;-80
2022/10/11 03:38:24;;;;;;;6.15;1.70;;;;;;;;;;4937690;28;20071;-79
2022/10/11 03:40:50;;;;;;;3.47;1.10;;;;;;;;;;4926774;28;20040;-80
2022/10/11 03:43:16;;;;;;;4.70;1.20;;;;;;;;;;4950135;28;20035;-80
2022/10/11 03:45:41;;;;;;;5.43;1.17;;;;;;;;;;4930163;28;20044;-81
2022/10/11 03:48:10;;;;;;;4.10;1.08;;;;;;;;;;4925644;28;20058;-81
2022/10/11 03:50:36;;;;;;;8.18;1.27;;;;;;;;;;4963844;28;20538;-81
2022/10/11 03:53:03;;;;;;;6.28;1.95;;;;;;;;;;4939547;28;20044;-80
2022/10/11 03:55:28;;;;;;;7.88;1.90;;;;;;;;;;4923648;28;20050;-81
2022/10/11 03:57:54;;;;;;;5.68;2.15;;;;;;;;;;4960784;28;20035;-81
2022/10/11 04:00:19;;;;;;;6.32;1.42;;;;;;;;;;4939244;28;20118;-81
2022/10/11 04:02:45;;;;;;;8.10;1.85;;;;;;;;;;4930972;28;20047;-79
2022/10/11 04:05:11;;;;;;;4.78;1.33;;;;;;;;;;4953161;28;20039;-77
2022/10/11 04:07:37;;;;;;;5.80;1.83;;;;;;;;;;4923463;28;20086;-78
2022/10/11 04:10:02;;;;;;;4.80;1.45;;;;;;;;;;4923517;28;20083;-77
2022/10/11 04:12:28;;;;;;;5.93;2.05;;;;;;;;;;4939511;28;20476;-78
2022/10/11 04:14:53;;;;;;;5.15;1.42;;;;;;;;;;4930659;28;20047;-79
2022/10/11 04:17:18;;;;;;;6.00;1.55;;;;;;;;;;4937580;28;20411;-78
2022/10/11 04:19:44;;;;;;;5.78;1.80;;;;;;;;;;4938684;28;20570;-77
2022/10/11 04:22:09;;;;;;;5.90;1.90;;;;;;;;;;4938526;28;20937;-77
2022/10/11 04:24:34;;;;;;;3.97;1.50;;;;;;;;;;4939077;28;20446;-77
2022/10/11 04:27:00;;;;;;;7.80;1.63;;;;;;;;;;4929931;28;20035;-80
2022/10/11 04:29:25;;;;;;;7.10;1.95;;;;;;;;;;4937165;28;20043;-79
2022/10/11 04:31:51;;;;;;;5.25;1.65;;;;;;;;;;4922770;28;20039;-80
2022/10/11 04:34:16;;;;;;;5.15;1.70;;;;;;;;;;4930070;28;20107;-80
2022/10/11 04:36:44;;;;;;;2.95;1.52;;;;;;;;;;4956454;28;20035;-82
2022/10/11 04:39:09;;;;;;;6.68;1.60;;;;;;;;;;4925635;28;20094;-80
2022/10/11 04:41:35;;;;;;;3.95;1.75;;;;;;;;;;4920531;28;20035;-80
2022/10/11 04:44:01;;;;;;;5.38;2.08;;;;;;;;;;4924022;28;20143;-81
2022/10/11 04:46:27;;;;;;;6.13;1.88;;;;;;;;;;4938668;28;20035;-80
2022/10/11 04:49:13;;;;;;;5.35;1.73;;;;;;;;;;4956458;28;20098;-83
2022/10/11 04:51:38;;;;;;;6.90;2.10;;;;;;;;;;4946222;28;20035;-81
2022/10/11 04:54:03;;;;;;;6.30;1.70;;;;;;;;;;4968019;28;20099;-80
2022/10/11 04:56:29;;;;;;;6.15;2.00;;;;;;;;;;4919689;28;20074;-80
2022/10/11 04:58:54;;;;;;;7.43;2.47;;;;;;;;;;4928812;28;20039;-80
2022/10/11 05:01:20;;;;;;;5.28;1.90;;;;;;;;;;4934615;28;20394;-79
2022/10/11 05:03:45;;;;;;;8.02;2.47;;;;;;;;;;4936106;28;20027;-80
2022/10/11 05:06:10;;;;;;;8.43;2.10;;;;;;;;;;4969167;28;20050;-79
2022/10/11 05:08:36;;;;;;;5.07;1.88;;;;;;;;;;4935989;28;20043;-79
2022/10/11 05:11:05;;;;;;;4.97;1.75;;;;;;;;;;4935633;28;20035;-80
2022/10/11 05:13:31;;;;;;;6.53;2.80;;;;;;;;;;4944684;28;20043;-79
2022/10/11 05:15:56;;;;;;;6.60;1.92;;;;;;;;;;4939054;28;20046;-80
2022/10/11 05:18:25;;;;;;;13.15;3.25;;;;;;;;;;4936090;28;20109;-79
2022/10/11 05:21:18;;;;;;;4.55;1.77;;;;;;;;;;4923866;28;20078;-79
2022/10/11 05:23:48;;;;;;;7.45;2.25;;;;;;;;;;4944899;28;20075;-79
2022/10/11 05:26:14;;;;;;;8.70;2.28;;;;;;;;;;4920397;28;20175;-80
2022/10/11 05:28:39;;;;;;;8.15;2.20;;;;;;;;;;4929289;28;20648;-80
2022/10/11 05:31:05;;;;;;;7.20;2.20;;;;;;;;;;4927687;28;20039;-79
2022/10/11 05:33:31;;;;;;;5.25;2.35;;;;;;;;;;4930061;28;20690;-80
2022/10/11 05:35:56;;;;;;;5.63;1.73;;;;;;;;;;4929927;28;20035;-80
2022/10/11 05:38:22;;;;;;;7.50;2.15;;;;;;;;;;4928127;28;20043;-80
2022/10/11 05:40:47;;;;;;;4.85;2.15;;;;;;;;;;4939676;28;20432;-80
2022/10/11 05:43:13;;;;;;;6.22;2.42;;;;;;;;;;4922853;28;20039;-80
2022/10/11 05:45:40;;;;;;;6.35;2.13;;;;;;;;;;4934923;28;20403;-80
2022/10/11 05:48:06;;;;;;;5.60;2.10;;;;;;;;;;4937339;28;20510;-80
2022/10/11 05:50:36;;;;;;;7.28;2.50;;;;;;;;;;4935804;28;20036;-80
2022/10/11 05:53:02;;;;;;;6.35;2.28;;;;;;;;;;4936633;28;20032;-80
2022/10/11 05:55:28;;;;;;;6.90;2.25;;;;;;;;;;4954336;28;20152;-80
2022/10/11 05:57:55;;;;;;;6.90;2.10;;;;;;;;;;4958492;28;20574;-80
2022/10/11 06:00:21;;;;;;;6.50;2.42;;;;;;;;;;4936966;28;20402;-80
2022/10/11 06:02:46;;;;;;;6.22;2.53;;;;;;;;;;4953358;28;20048;-80
2022/10/11 06:05:12;;;;;;;6.70;2.50;;;;;;;;;;4943732;28;20479;-80
2022/10/11 06:07:38;;;;;;;6.70;2.60;;;;;;;;;;4953381;28;20801;-79
2022/10/11 06:10:04;;;;;;;6.00;2.28;;;;;;;;;;4923403;28;20058;-81
2022/10/11 06:12:30;;;;;;;6.05;2.28;;;;;;;;;;4920633;28;20051;-80
2022/10/11 06:14:56;;;;;;;9.05;2.97;;;;;;;;;;4938851;28;20559;-80
2022/10/11 06:17:51;;;;;;;5.38;2.22;;;;;;;;;;4928776;28;20051;-81
2022/10/11 06:20:17;;;;;;;7.90;2.63;;;;;;;;;;4967607;28;20039;-80
2022/10/11 06:22:42;;;;;;;6.43;2.33;;;;;;;;;;4929461;28;20101;-81
2022/10/11 06:25:08;;;;;;;8.60;2.42;;;;;;;;;;4938300;28;20122;-80
2022/10/11 06:27:33;;;;;;;5.75;2.45;;;;;;;;;;4961355;28;20035;-79
2022/10/11 06:29:59;;;;;;;5.32;2.63;;;;;;;;;;4919802;28;20040;-80
2022/10/11 06:32:24;;;;;;;6.22;3.28;;;;;;;;;;4934916;28;20038;-81
2022/10/11 06:34:49;;;;;;;9.45;2.88;;;;;;;;;;4921487;28;20079;-80
2022/10/11 06:37:15;;;;;;;9.10;3.40;;;;;;;;;;4921672;28;20128;-80
2022/10/11 06:39:40;;;;;;;7.65;2.88;;;;;;;;;;4934193;28;20047;-80
2022/10/11 06:42:05;;;;;;;8.02;2.80;;;;;;;;;;4952639;28;20043;-80
2022/10/11 06:44:31;;;;;;;4.97;2.75;;;;;;;;;;4929897;28;20070;-80
2022/10/11 06:46:56;;;;;;;7.00;2.70;;;;;;;;;;4938356;28;20035;-80
2022/10/11 06:49:21;;;;;;;12.68;2.92;;;;;;;;;;4967501;28;20115;-80
2022/10/11 06:51:47;;;;;;;12.38;3.38;;;;;;;;;;4933531;28;20040;-80
2022/10/11 06:54:12;;;;;;;11.10;3.45;;;;;;;;;;4917645;28;20047;-80
2022/10/11 06:56:39;;;;;;;7.10;2.80;;;;;;;;;;4923301;28;20047;-80
2022/10/11 06:59:05;;;;;;;5.73;2.30;;;;;;;;;;4938371;28;20063;-81
2022/10/11 07:01:31;;;;;;;10.70;3.00;;;;;;;;;;4927609;28;20035;-80
2022/10/11 07:03:57;;;;;;;3.95;2.15;;;;;;;;;;4935956;28;20080;-80
2022/10/11 07:06:25;;;;;;;5.95;1.80;;;;;;;;;;4918694;28;20496;-80
2022/10/11 07:08:51;;;;;;;5.85;2.20;;;;;;;;;;4952175;28;20507;-80
2022/10/11 07:11:19;;;;;;;6.78;2.38;;;;;;;;;;4942953;28;20031;-80
2022/10/11 07:13:59;;;;;;;4.68;1.85;;;;;;;;;;4935920;28;20039;-81
2022/10/11 07:16:25;;;;;;;6.78;2.33;;;;;;;;;;4938687;28;20360;-81
2022/10/11 07:18:52;;;;;;;9.98;2.38;;;;;;;;;;4934387;28;20434;-80
2022/10/11 07:21:18;;;;;;;5.47;2.17;;;;;;;;;;4937461;28;20039;-80
2022/10/11 07:23:43;;;;;;;5.57;1.63;;;;;;;;;;4925241;28;20087;-80
2022/10/11 07:26:09;;;;;;;5.03;1.55;;;;;;;;;;4926941;28;20121;-80
2022/10/11 07:28:35;;;;;;;6.10;2.10;;;;;;;;;;4929045;28;20044;-80
2022/10/11 07:31:06;;;;;;;5.85;2.20;;;;;;;;;;4926766;28;20036;-81
2022/10/11 07:33:32;;;;;;;4.85;1.73;;;;;;;;;;4927892;28;20036;-81
2022/10/11 07:35:57;;;;;;;4.60;1.63;;;;;;;;;;4922400;28;20043;-80
2022/10/11 07:38:23;;;;;;;7.10;1.88;;;;;;;;;;4927604;28;20078;-80
2022/10/11 07:40:48;;;;;;;6.95;1.75;;;;;;;;;;4944276;28;20035;-79
2022/10/11 07:43:14;;;;;;;8.68;2.05;;;;;;;;;;4933350;28;20036;-81
2022/10/11 07:45:40;;;;;;;9.77;1.85;;;;;;;;;;4928237;28;20118;-81
2022/10/11 07:48:06;;;;;;;4.65;1.40;;;;;;;;;;4940872;28;20043;-81
2022/10/11 07:50:32;;;;;;;5.40;1.45;;;;;;;;;;4949229;28;20757;-82
2022/10/11 07:52:58;;;;;;;5.57;1.50;;;;;;;;;;4952778;28;20028;-80
2022/10/11 07:55:26;;;;;;;6.20;1.48;;;;;;;;;;4918097;28;20094;-80
2022/10/11 07:57:56;;;;;;;5.82;1.52;;;;;;;;;;4918305;28;20043;-80
2022/10/11 08:00:21;;;;;;;6.50;1.30;;;;;;;;;;4920219;28;20458;-81
2022/10/11 08:02:47;;;;;;;4.90;1.45;;;;;;;;;;4935526;28;20054;-81
2022/10/11 08:05:12;;;;;;;4.82;1.15;;;;;;;;;;4927553;28;20091;-80
2022/10/11 08:07:37;;;;;;;8.75;1.48;;;;;;;;;;4943085;28;20075;-80
2022/10/11 08:10:08;;;;;;;4.80;1.10;;;;;;;;;;4922056;28;20035;-81
2022/10/11 08:12:33;;;;;;;5.80;1.65;;;;;;;;;;4935546;28;20071;-81
2022/10/11 08:14:59;;;;;;;5.82;1.25;;;;;;;;;;4935076;28;20538;-81
2022/10/11 08:17:25;;;;;;;3.33;1.00;;;;;;;;;;4932646;28;20055;-80
2022/10/11 08:19:50;;;;;;;5.50;1.13;;;;;;;;;;4950807;28;20124;-81
2022/10/11 08:22:16;;;;;;;5.03;1.20;;;;;;;;;;4932817;28;20070;-81
2022/10/11 08:24:41;;;;;;;3.67;0.85;;;;;;;;;;4921795;28;20055;-81
2022/10/11 08:27:07;;;;;;;5.50;1.45;;;;;;;;;;4927380;28;20031;-80
2022/10/11 08:29:32;;;;;;;5.63;1.10;;;;;;;;;;4920603;28;20046;-80
2022/10/11 08:31:57;;;;;;;4.90;1.00;;;;;;;;;;4918110;28;20094;-80
2022/10/11 08:34:23;;;;;;;4.00;1.20;;;;;;;;;;4950410;28;20071;-80
2022/10/11 08:36:48;;;;;;;5.22;1.00;;;;;;;;;;4924374;28;20042;-79
2022/10/11 08:39:13;;;;;;;4.32;1.15;;;;;;;;;;4955902;28;20031;-80
2022/10/11 08:41:54;;;;;;;4.78;1.25;;;;;;;;;;4928995;28;20488;-80
2022/10/11 08:44:41;;;;;;;6.55;1.33;;;;;;;;;;4968389;28;20043;-80
2022/10/11 08:47:12;;;;;;;7.22;1.45;;;;;;;;;;4937673;28;20032;-80
2022/10/11 08:49:38;;;;;;;5.30;1.10;;;;;;;;;;4968568;28;20474;-80
2022/10/11 08:52:30;;;;;;;5.10;1.13;;;;;;;;;;4952658;28;20067;-80
2022/10/11 08:55:02;;;;;;;4.63;1.05;;;;;;;;;;4929832;28;20440;-80
2022/10/11 08:57:30;;;;;;;3.35;0.68;;;;;;;;;;4957836;28;20646;-80
2022/10/11 08:59:58;;;;;;;3.05;0.98;;;;;;;;;;4956597;28;20512;-81
2022/10/11 09:02:24;;;;;;;;;;;;;;;;;;4952904;28;20114;-82
2022/10/11 09:04:51;;;;;;;7.45;1.08;;;;;;;;;;4941088;28;20020;-80
2022/10/11 09:07:25;;;;;;;5.85;1.25;;;;;;;;;;4928647;28;20032;-80
2022/10/11 09:10:21;;;;;;;4.57;1.23;;;;;;;;;;4966664;28;20039;-81
2022/10/11 09:13:30;;;;;;;3.22;0.80;;;;;;;;;;4944917;28;20414;-81
2022/10/11 09:16:36;;;;;;;6.07;1.00;;;;;;;;;;4923732;28;20467;-81
2022/10/11 09:19:21;;;;;;;4.07;1.23;;;;;;;;;;4924850;28;20051;-81
2022/10/11 09:21:58;;;;;;;4.82;1.02;;;;;;;;;;4939504;28;20275;-81
2022/10/11 09:24:44;;;;;;;4.65;1.17;;;;;;;;;;4945782;28;20035;-80
2022/10/11 09:27:17;;;;;;;4.50;1.33;;;;;;;;;;4951644;28;20530;-80
2022/10/11 09:30:07;;;;;;;4.93;0.80;;;;;;;;;;4967703;28;20415;-80
2022/10/11 09:32:38;;;;;;;4.15;1.25;;;;;;;;;;4939388;28;20042;-79
2022/10/11 09:35:12;;;;;;;3.28;0.80;;;;;;;;;;4935474;28;20039;-81
2022/10/11 09:37:58;;;;;;;3.97;1.13;;;;;;;;;;4945239;28;20106;-80
2022/10/11 09:40:43;;;;;;;3.15;1.10;;;;;;;;;;4956869;28;20495;-80
2022/10/11 09:43:09;;;;;;;5.43;1.35;;;;;;;;;;4938540;28;20126;-80
2022/10/11 09:45:34;;;;;;;3.83;0.88;;;;;;;;;;4935388;28;20066;-80
2022/10/11 09:48:01;;;;;;;5.82;0.98;;;;;;;;;;4924611;28;20032;-81
2022/10/11 09:50:29;;;;;;;4.77;1.10;;;;;;;;;;4964904;28;20427;-80
2022/10/11 09:53:02;;;;;;;;;;;;;;;;;;4922813;28;20043;-80
2022/10/11 09:56:03;;;;;;;5.03;1.10;;;;;;;;;;4921433;28;19919;-80
2022/10/11 09:58:30;;;;;;;4.38;1.08;;;;;;;;;;4906011;29;20522;-80
2022/10/11 10:01:07;;;;;;;4.83;1.10;;;;;;;;;;4932613;28;20044;-80
2022/10/11 10:03:35;;;;;;;4.18;1.10;;;;;;;;;;4936519;28;20432;-80
2022/10/11 10:06:21;;;;;;;5.63;1.05;;;;;;;;;;4936382;28;20094;-80
2022/10/11 10:08:47;;;;;;;6.03;1.10;;;;;;;;;;4968140;28;20122;-80
2022/10/11 10:11:13;;;;;;;7.32;1.20;;;;;;;;;;4940318;28;20122;-80
2022/10/11 10:13:53;;;;;;;3.40;0.85;;;;;;;;;;4953981;28;20040;-80
2022/10/11 10:16:25;;;;;;;3.90;0.85;;;;;;;;;;4950528;28;20039;-81
2022/10/11 10:18:54;;;;;;;6.03;0.80;;;;;;;;;;4929176;28;20411;-80
2022/10/11 10:21:29;;;;;;;7.05;2.20;;;;;;;;;;4929270;28;20055;-80
2022/10/11 10:23:55;;;;;;;7.13;1.15;;;;;;;;;;4954060;28;20491;-81
2022/10/11 10:26:25;;;;;;;4.20;1.00;;;;;;;;;;4934135;28;20090;-80
2022/10/11 10:29:08;;;;;;;6.07;1.17;;;;;;;;;;4953476;28;20047;-81
2022/10/11 10:31:37;;;;;;;3.58;0.77;;;;;;;;;;4938770;28;20125;-81
2022/10/11 10:34:08;;;;;;;2.88;0.88;;;;;;;;;;4938546;28;20052;-82
2022/10/11 10:36:35;;;;;;;5.30;1.02;;;;;;;;;;4953383;28;20495;-81
2022/10/11 10:39:17;;;;;;;4.53;1.13;;;;;;;;;;4934089;28;20188;-81
2022/10/11 10:41:42;;;;;;;4.15;1.30;;;;;;;;;;4921884;28;20430;-81
2022/10/11 10:44:08;;;;;;;5.72;0.88;;;;;;;;;;4934779;28;20066;-81
2022/10/11 10:46:58;;;;;;;5.00;0.90;;;;;;;;;;4927738;28;20436;-81
2022/10/11 10:49:26;;;;;;;6.65;0.90;;;;;;;;;;4935965;28;20115;-82
2022/10/11 10:52:04;;;;;;;8.30;1.45;;;;;;;;;;4928402;28;20119;-82
2022/10/11 10:54:42;;;;;;;3.83;0.70;;;;;;;;;;4944560;28;20043;-81
2022/10/11 10:57:58;;;;;;;5.05;1.33;;;;;;;;;;4930792;28;20511;-81
2022/10/11 11:00:23;;;;;;;3.83;0.88;;;;;;;;;;4884445;29;20041;-82
2022/10/11 11:03:02;;;;;;;5.07;1.33;;;;;;;;;;4957968;28;20040;-82
2022/10/11 11:05:44;;;;;;;4.18;1.05;;;;;;;;;;4936270;28;20044;-81
2022/10/11 11:08:18;;;;;;;4.82;0.90;;;;;;;;;;4936861;28;20046;-81
2022/10/11 11:10:52;;;;;;;2.90;0.60;;;;;;;;;;4968374;28;20688;-81
2022/10/11 11:13:34;;;;;;;4.80;1.23;;;;;;;;;;4956050;28;20046;-81
2022/10/11 11:16:18;;;;;;;3.28;0.73;;;;;;;;;;4936416;28;20495;-82
2022/10/11 11:19:17;;;;;;;4.97;0.70;;;;;;;;;;4935767;28;20637;-80
2022/10/11 11:21:49;;;;;;;3.85;0.80;;;;;;;;;;4949961;28;20376;-81
2022/10/11 11:24:38;;;;;;;5.38;0.90;;;;;;;;;;4921689;28;20040;-79
2022/10/11 11:27:35;;;;;;;3.17;0.70;;;;;;;;;;4905376;28;20039;-80
2022/10/11 11:30:07;;;;;;;4.75;0.98;;;;;;;;;;4902332;28;20802;-81
2022/10/11 11:32:41;;;;;;;3.67;0.80;;;;;;;;;;4933988;28;20154;-81
2022/10/11 11:35:26;;;;;;;4.28;0.63;;;;;;;;;;4942845;28;20047;-79
2022/10/11 11:37:57;;;;;;;4.72;0.80;;;;;;;;;;4936144;28;20074;-81
2022/10/11 11:40:44;;;;;;;3.47;0.75;;;;;;;;;;4939193;28;20040;-81
2022/10/11 11:43:33;;;;;;;3.72;0.55;;;;;;;;;;4958926;28;20035;-81
2022/10/11 11:46:05;;;;;;;3.55;0.60;;;;;;;;;;4949914;28;20468;-81
2022/10/11 11:48:31;;;;;;;5.00;0.77;;;;;;;;;;4937912;28;20527;-81
2022/10/11 11:51:04;;;;;;;3.03;0.63;;;;;;;;;;4933458;28;20050;-81
2022/10/11 11:54:05;;;;;;;3.17;0.60;;;;;;;;;;4952608;28;20036;-81
2022/10/11 11:57:10;;;;;;;3.80;0.63;;;;;;;;;;4938624;28;20043;-82
2022/10/11 11:59:52;;;;;;;5.28;0.85;;;;;;;;;;4899448;28;20618;-82
2022/10/11 12:02:45;;;;;;;4.78;1.25;;;;;;;;;;4934739;28;20542;-81
2022/10/11 12:05:13;;;;;;;2.30;0.47;;;;;;;;;;4943525;28;20450;-81
2022/10/11 12:07:48;;;;;;;4.97;0.70;;;;;;;;;;4952406;28;20047;-81
2022/10/11 12:10:35;;;;;;;4.25;0.70;;;;;;;;;;4927604;28;20115;-81
2022/10/11 12:13:23;;;;;;;4.93;0.90;;;;;;;;;;4938943;28;20763;-81
2022/10/11 12:16:08;;;;;;;3.15;0.68;;;;;;;;;;4968818;28;20536;-81
2022/10/11 12:18:35;;;;;;;3.00;0.45;;;;;;;;;;4946089;28;20044;-81
2022/10/11 12:21:19;;;;;;;4.28;0.65;;;;;;;;;;4938801;28;20573;-81
2022/10/11 12:23:49;;;;;;;4.22;0.80;;;;;;;;;;4926578;28;20036;-81
2022/10/11 12:26:14;;;;;;;4.70;0.75;;;;;;;;;;4937211;28;20455;-80
2022/10/11 12:28:39;;;;;;;4.15;0.73;;;;;;;;;;4947059;28;20134;-81
2022/10/11 12:31:26;;;;;;;2.67;0.70;;;;;;;;;;4940935;28;20519;-82
2022/10/11 12:34:00;;;;;;;2.27;0.60;;;;;;;;;;4933238;28;20046;-81
2022/10/11 12:36:42;;;;;;;4.25;0.93;;;;;;;;;;4937432;28;20518;-81
2022/10/11 12:39:42;;;;;;;4.68;1.02;;;;;;;;;;4941547;28;20035;-82
2022/10/11 12:42:21;;;;;;;6.00;1.48;;;;;;;;;;4924738;28;20460;-81
2022/10/11 12:45:11;;;;;;;2.97;0.80;;;;;;;;;;4944894;28;20499;-81
2022/10/11 12:48:01;;;;;;;6.20;0.75;;;;;;;;;;4937744;28;20078;-81
2022/10/11 12:50:26;;;;;;;3.70;1.00;;;;;;;;;;4941809;28;20524;-81
2022/10/11 12:53:15;;;;;;;4.22;0.85;;;;;;;;;;4941579;28;20050;-82
2022/10/11 12:56:00;;;;;;;2.40;0.63;;;;;;;;;;4921984;28;20043;-82
2022/10/11 12:58:42;;;;;;;4.63;0.90;;;;;;;;;;4923441;28;20044;-82
2022/10/11 13:01:08;;;;;;;5.75;1.05;;;;;;;;;;4956684;28;20502;-82
2022/10/11 13:03:38;;;;;;;5.47;1.20;;;;;;;;;;4969567;28;20050;-83
2022/10/11 13:06:17;;;;;;;4.75;0.93;;;;;;;;;;4929840;28;20051;-82
2022/10/11 13:08:47;;;;;;;2.25;0.50;;;;;;;;;;4937751;28;20534;-82
2022/10/11 13:11:21;;;;;;;4.57;0.73;;;;;;;;;;4968180;28;20467;-81
2022/10/11 13:13:53;;;;;;;4.03;0.90;;;;;;;;;;4939396;28;20035;-82
2022/10/11 13:16:40;;;;;;;4.93;0.80;;;;;;;;;;4940834;28;20039;-81
2022/10/11 13:19:11;;;;;;;3.60;0.70;;;;;;;;;;4930625;28;20110;-83
2022/10/11 13:21:38;;;;;;;4.28;0.70;;;;;;;;;;4939036;28;20623;-80
2022/10/11 13:24:11;;;;;;;4.80;0.88;;;;;;;;;;4925015;28;20506;-81
2022/10/11 13:26:36;;;;;;;2.35;0.63;;;;;;;;;;4926207;28;20400;-81
2022/10/11 13:29:02;;;;;;;5.47;0.93;;;;;;;;;;4923488;28;20035;-81
2022/10/11 13:31:27;;;;;;;3.15;0.80;;;;;;;;;;4929279;28;20483;-81
2022/10/11 13:33:55;;;;;;;3.95;0.93;;;;;;;;;;4928838;28;20546;-80
2022/10/11 13:36:24;;;;;;;4.55;0.88;;;;;;;;;;4934228;28;20036;-80
2022/10/11 13:38:56;;;;;;;3.80;0.60;;;;;;;;;;4968115;28;20039;-81
2022/10/11 13:41:25;;;;;;;3.03;0.65;;;;;;;;;;4939232;28;20039;-81
2022/10/11 13:43:52;;;;;;;3.60;0.77;;;;;;;;;;4968532;28;20551;-81
2022/10/11 13:46:21;;;;;;;4.03;0.70;;;;;;;;;;4923505;28;20035;-80
2022/10/11 13:49:05;;;;;;;3.03;0.60;;;;;;;;;;4952569;28;20055;-80
2022/10/11 13:51:35;;;;;;;2.47;0.50;;;;;;;;;;4937926;28;20039;-81
2022/10/11 13:54:03;;;;;;;3.33;0.77;;;;;;;;;;4938602;28;20040;-81
2022/10/11 13:56:33;;;;;;;3.13;0.77;;;;;;;;;;4928531;28;20439;-81
2022/10/11 13:58:59;;;;;;;4.25;0.77;;;;;;;;;;4920813;28;20499;-81
2022/10/11 14:01:39;;;;;;;2.55;0.63;;;;;;;;;;4968072;28;20043;-81
2022/10/11 14:04:09;;;;;;;3.35;0.70;;;;;;;;;;4928512;28;20087;-81
2022/10/11 14:06:51;;;;;;;2.13;0.55;;;;;;;;;;4969112;28;20572;-81
2022/10/11 14:09:37;;;;;;;3.50;0.85;;;;;;;;;;4924146;28;20043;-79
2022/10/11 14:12:30;;;;;;;3.65;0.75;;;;;;;;;;4928640;28;20042;-79
2022/10/11 14:14:58;;;;;;;5.03;1.42;;;;;;;;;;4967751;28;20055;-80
2022/10/11 14:17:41;;;;;;;3.35;0.88;;;;;;;;;;4952423;28;20035;-80
2022/10/11 14:20:20;;;;;;;2.72;0.60;;;;;;;;;;4966726;28;20094;-81
2022/10/11 14:22:45;;;;;;;3.05;0.70;;;;;;;;;;4951923;28;20075;-82
2022/10/11 14:25:12;;;;;;;2.33;0.70;;;;;;;;;;4928383;28;20731;-80
2022/10/11 14:27:38;;;;;;;3.47;0.80;;;;;;;;;;4938189;28;20709;-80
2022/10/11 14:30:13;;;;;;;4.63;0.75;;;;;;;;;;4930528;28;20037;-81
2022/10/11 14:32:41;;;;;;;3.13;0.75;;;;;;;;;;4966356;28;20086;-80
2022/10/11 14:35:13;;;;;;;3.15;0.63;;;;;;;;;;4922477;28;20507;-81
2022/10/11 14:37:39;;;;;;;3.38;0.77;;;;;;;;;;4926873;28;20130;-81
2022/10/11 14:40:12;;;;;;;3.40;0.70;;;;;;;;;;4935965;28;20170;-81
2022/10/11 14:42:37;;;;;;;3.00;0.60;;;;;;;;;;4936034;28;20039;-79
2022/10/11 14:45:03;;;;;;;1.98;0.50;;;;;;;;;;4958768;28;20043;-81
2022/10/11 14:47:28;;;;;;;5.95;1.00;;;;;;;;;;4933225;28;20043;-81
2022/10/11 14:49:53;;;;;;;2.47;0.60;;;;;;;;;;4918130;28;20040;-82
2022/10/11 14:52:19;;;;;;;2.35;0.65;;;;;;;;;;4934681;28;20071;-80
2022/10/11 14:54:44;;;;;;;4.30;1.05;;;;;;;;;;4922181;28;20063;-81
2022/10/11 14:57:11;;;;;;;3.85;0.70;;;;;;;;;;4920067;28;20558;-80
2022/10/11 14:59:36;;;;;;;6.45;1.08;;;;;;;;;;4936360;28;20047;-81
2022/10/11 15:02:07;;;;;;;3.13;0.70;;;;;;;;;;4923369;28;20066;-81
2022/10/11 15:04:33;;;;;;;4.35;0.88;;;;;;;;;;4947321;28;20590;-81
2022/10/11 15:06:58;;;;;;;4.07;0.90;;;;;;;;;;4934601;28;20122;-80
2022/10/11 15:09:24;;;;;;;5.20;1.10;;;;;;;;;;4944365;28;20495;-80
2022/10/11 15:11:51;;;;;;;2.58;0.60;;;;;;;;;;4921013;28;20510;-80